sensor_id;sensor_type;location;lat;lon;timestamp;temperature;humidity
36002;DHT22;22070;50.922;5.430;2023-04-25T00:00:45;9.40;99.90
36002;DHT22;22070;50.922;5.430;2023-04-25T00:03:11;9.50;99.90
36002;DHT22;22070;50.922;5.430;2023-04-25T00:05:37;9.50;99.90
36002;DHT22;22070;50.922;5.430;2023-04-25T00:08:03;9.50;99.90
36002;DHT22;22070;50.922;5.430;2023-04-25T00:10:30;9.50;99.90
36002;DHT22;22070;50.922;5.430;2023-04-25T00:12:55;9.40;99.90
36002;DHT22;22070;50.922;5.430;2023-04-25T00:15:21;9.50;99.90
36002;DHT22;22070;50.922;5.430;2023-04-25T00:17:47;9.40;99.90
36002;DHT22;22070;50.922;5.430;2023-04-25T00:20:12;9.40;99.90
36002;DHT22;22070;50.922;5.430;2023-04-25T00:22:38;9.40;99.90
36002;DHT22;22070;50.922;5.430;2023-04-25T00:25:05;9.50;99.90
36002;DHT22;22070;50.922;5.430;2023-04-25T00:27:31;9.50;99.90
36002;DHT22;22070;50.922;5.430;2023-04-25T00:29:57;9.50;99.90
36002;DHT22;22070;50.922;5.430;2023-04-25T00:32:23;9.50;99.90
36002;DHT22;22070;50.922;5.430;2023-04-25T00:34:48;9.50;99.90
36002;DHT22;22070;50.922;5.430;2023-04-25T00:37:14;9.50;99.90
36002;DHT22;22070;50.922;5.430;2023-04-25T00:39:40;9.60;99.90
36002;DHT22;22070;50.922;5.430;2023-04-25T00:42:06;9.50;99.90
36002;DHT22;22070;50.922;5.430;2023-04-25T00:44:32;9.60;99.90
36002;DHT22;22070;50.922;5.430;2023-04-25T00:47:00;9.50;99.90
36002;DHT22;22070;50.922;5.430;2023-04-25T00:49:26;9.40;99.90
36002;DHT22;22070;50.922;5.430;2023-04-25T00:51:51;9.50;99.90
36002;DHT22;22070;50.922;5.430;2023-04-25T00:54:17;9.50;99.90
36002;DHT22;22070;50.922;5.430;2023-04-25T00:56:43;9.40;99.90
36002;DHT22;22070;50.922;5.430;2023-04-25T00:59:10;9.40;99.90
36002;DHT22;22070;50.922;5.430;2023-04-25T01:01:36;9.40;99.90
36002;DHT22;22070;50.922;5.430;2023-04-25T01:04:03;9.40;99.90
36002;DHT22;22070;50.922;5.430;2023-04-25T01:06:28;9.40;99.90
36002;DHT22;22070;50.922;5.430;2023-04-25T01:08:54;9.40;99.90
36002;DHT22;22070;50.922;5.430;2023-04-25T01:11:20;9.40;99.90
36002;DHT22;22070;50.922;5.430;2023-04-25T01:13:46;9.30;99.90
36002;DHT22;22070;50.922;5.430;2023-04-25T01:16:11;9.30;99.90
36002;DHT22;22070;50.922;5.430;2023-04-25T01:18:41;9.30;99.90
36002;DHT22;22070;50.922;5.430;2023-04-25T01:21:09;9.40;99.90
36002;DHT22;22070;50.922;5.430;2023-04-25T01:23:35;9.40;99.90
36002;DHT22;22070;50.922;5.430;2023-04-25T01:26:01;9.40;99.90
36002;DHT22;22070;50.922;5.430;2023-04-25T01:28:28;9.30;99.90
36002;DHT22;22070;50.922;5.430;2023-04-25T01:30:54;9.40;99.90
36002;DHT22;22070;50.922;5.430;2023-04-25T01:33:21;9.40;99.90
36002;DHT22;22070;50.922;5.430;2023-04-25T01:35:47;9.30;99.90
36002;DHT22;22070;50.922;5.430;2023-04-25T01:38:13;9.20;99.90
36002;DHT22;22070;50.922;5.430;2023-04-25T01:40:40;9.20;99.90
36002;DHT22;22070;50.922;5.430;2023-04-25T01:43:06;9.40;99.90
36002;DHT22;22070;50.922;5.430;2023-04-25T01:45:33;9.30;99.90
36002;DHT22;22070;50.922;5.430;2023-04-25T01:48:02;9.30;99.90
36002;DHT22;22070;50.922;5.430;2023-04-25T01:50:28;9.30;99.90
36002;DHT22;22070;50.922;5.430;2023-04-25T01:52:55;9.20;99.90
36002;DHT22;22070;50.922;5.430;2023-04-25T01:55:20;9.20;99.90
36002;DHT22;22070;50.922;5.430;2023-04-25T01:57:46;9.30;99.90
36002;DHT22;22070;50.922;5.430;2023-04-25T02:00:12;9.20;99.90
36002;DHT22;22070;50.922;5.430;2023-04-25T02:02:38;9.20;99.90
36002;DHT22;22070;50.922;5.430;2023-04-25T02:05:04;9.20;99.90
36002;DHT22;22070;50.922;5.430;2023-04-25T02:07:30;9.20;99.90
36002;DHT22;22070;50.922;5.430;2023-04-25T02:09:56;9.10;99.90
36002;DHT22;22070;50.922;5.430;2023-04-25T02:12:21;9.20;99.90
36002;DHT22;22070;50.922;5.430;2023-04-25T02:14:47;9.20;99.90
36002;DHT22;22070;50.922;5.430;2023-04-25T02:17:13;9.30;99.90
36002;DHT22;22070;50.922;5.430;2023-04-25T02:19:38;9.20;99.90
36002;DHT22;22070;50.922;5.430;2023-04-25T02:22:04;9.10;99.90
36002;DHT22;22070;50.922;5.430;2023-04-25T02:24:30;9.10;99.90
36002;DHT22;22070;50.922;5.430;2023-04-25T02:26:57;9.10;99.90
36002;DHT22;22070;50.922;5.430;2023-04-25T02:29:22;9.00;99.90
36002;DHT22;22070;50.922;5.430;2023-04-25T02:31:48;9.00;99.90
36002;DHT22;22070;50.922;5.430;2023-04-25T02:34:14;9.00;99.90
36002;DHT22;22070;50.922;5.430;2023-04-25T02:36:39;8.90;99.90
36002;DHT22;22070;50.922;5.430;2023-04-25T02:39:05;8.90;99.90
36002;DHT22;22070;50.922;5.430;2023-04-25T02:41:31;8.80;99.90
36002;DHT22;22070;50.922;5.430;2023-04-25T02:43:56;8.90;99.90
36002;DHT22;22070;50.922;5.430;2023-04-25T02:46:22;8.90;99.90
36002;DHT22;22070;50.922;5.430;2023-04-25T02:48:48;8.90;99.90
36002;DHT22;22070;50.922;5.430;2023-04-25T02:51:13;9.00;99.90
36002;DHT22;22070;50.922;5.430;2023-04-25T02:53:41;9.00;99.90
36002;DHT22;22070;50.922;5.430;2023-04-25T02:56:07;9.00;99.90
36002;DHT22;22070;50.922;5.430;2023-04-25T02:58:33;8.90;99.90
36002;DHT22;22070;50.922;5.430;2023-04-25T03:00:58;8.80;99.90
36002;DHT22;22070;50.922;5.430;2023-04-25T03:03:24;8.70;99.90
36002;DHT22;22070;50.922;5.430;2023-04-25T03:05:50;8.70;99.90
36002;DHT22;22070;50.922;5.430;2023-04-25T03:08:17;8.70;99.90
36002;DHT22;22070;50.922;5.430;2023-04-25T03:10:43;8.80;99.90
36002;DHT22;22070;50.922;5.430;2023-04-25T03:13:09;8.80;99.90
36002;DHT22;22070;50.922;5.430;2023-04-25T03:15:36;8.80;99.90
36002;DHT22;22070;50.922;5.430;2023-04-25T03:18:01;8.80;99.90
36002;DHT22;22070;50.922;5.430;2023-04-25T03:20:27;8.80;99.90
36002;DHT22;22070;50.922;5.430;2023-04-25T03:22:53;8.90;99.90
36002;DHT22;22070;50.922;5.430;2023-04-25T03:25:19;8.80;99.90
36002;DHT22;22070;50.922;5.430;2023-04-25T03:27:44;9.00;99.90
36002;DHT22;22070;50.922;5.430;2023-04-25T03:30:10;8.90;99.90
36002;DHT22;22070;50.922;5.430;2023-04-25T03:32:36;8.90;99.90
36002;DHT22;22070;50.922;5.430;2023-04-25T03:35:02;8.80;99.90
36002;DHT22;22070;50.922;5.430;2023-04-25T03:37:28;8.80;99.90
36002;DHT22;22070;50.922;5.430;2023-04-25T03:39:54;8.80;99.90
36002;DHT22;22070;50.922;5.430;2023-04-25T03:42:20;8.80;99.90
36002;DHT22;22070;50.922;5.430;2023-04-25T03:44:48;8.80;99.90
36002;DHT22;22070;50.922;5.430;2023-04-25T03:47:14;8.80;99.90
36002;DHT22;22070;50.922;5.430;2023-04-25T03:49:40;8.80;99.90
36002;DHT22;22070;50.922;5.430;2023-04-25T03:52:05;8.70;99.90
36002;DHT22;22070;50.922;5.430;2023-04-25T03:54:31;8.80;99.90
36002;DHT22;22070;50.922;5.430;2023-04-25T03:56:56;8.80;99.90
36002;DHT22;22070;50.922;5.430;2023-04-25T03:59:22;8.70;99.90
36002;DHT22;22070;50.922;5.430;2023-04-25T04:01:48;8.70;99.90
36002;DHT22;22070;50.922;5.430;2023-04-25T04:04:13;8.80;99.90
36002;DHT22;22070;50.922;5.430;2023-04-25T04:06:39;8.80;99.90
36002;DHT22;22070;50.922;5.430;2023-04-25T04:09:05;8.70;99.90
36002;DHT22;22070;50.922;5.430;2023-04-25T04:11:34;8.60;99.90
36002;DHT22;22070;50.922;5.430;2023-04-25T04:14:02;8.60;99.90
36002;DHT22;22070;50.922;5.430;2023-04-25T04:16:27;8.70;99.90
36002;DHT22;22070;50.922;5.430;2023-04-25T04:18:53;8.60;99.90
36002;DHT22;22070;50.922;5.430;2023-04-25T04:21:19;8.60;99.90
36002;DHT22;22070;50.922;5.430;2023-04-25T04:23:44;8.50;99.90
36002;DHT22;22070;50.922;5.430;2023-04-25T04:26:11;8.40;99.90
36002;DHT22;22070;50.922;5.430;2023-04-25T04:28:38;8.20;99.90
36002;DHT22;22070;50.922;5.430;2023-04-25T04:31:03;8.10;99.90
36002;DHT22;22070;50.922;5.430;2023-04-25T04:33:29;8.00;99.90
36002;DHT22;22070;50.922;5.430;2023-04-25T04:35:56;8.00;99.90
36002;DHT22;22070;50.922;5.430;2023-04-25T04:38:22;8.00;99.90
36002;DHT22;22070;50.922;5.430;2023-04-25T04:40:47;8.00;99.90
36002;DHT22;22070;50.922;5.430;2023-04-25T04:43:13;8.00;99.90
36002;DHT22;22070;50.922;5.430;2023-04-25T04:45:42;8.00;99.90
36002;DHT22;22070;50.922;5.430;2023-04-25T04:48:08;7.90;99.90
36002;DHT22;22070;50.922;5.430;2023-04-25T04:50:34;7.90;99.90
36002;DHT22;22070;50.922;5.430;2023-04-25T04:53:01;8.00;99.90
36002;DHT22;22070;50.922;5.430;2023-04-25T04:55:27;8.00;99.90
36002;DHT22;22070;50.922;5.430;2023-04-25T04:57:52;8.10;99.90
36002;DHT22;22070;50.922;5.430;2023-04-25T05:00:18;8.10;99.90
36002;DHT22;22070;50.922;5.430;2023-04-25T05:02:44;8.20;99.90
36002;DHT22;22070;50.922;5.430;2023-04-25T05:05:10;8.30;99.90
36002;DHT22;22070;50.922;5.430;2023-04-25T05:07:35;8.30;99.90
36002;DHT22;22070;50.922;5.430;2023-04-25T05:10:01;8.30;99.90
36002;DHT22;22070;50.922;5.430;2023-04-25T05:12:27;8.20;99.90
36002;DHT22;22070;50.922;5.430;2023-04-25T05:14:53;8.20;99.90
36002;DHT22;22070;50.922;5.430;2023-04-25T05:17:19;8.30;99.90
36002;DHT22;22070;50.922;5.430;2023-04-25T05:19:44;8.40;99.90
36002;DHT22;22070;50.922;5.430;2023-04-25T05:22:10;8.40;99.90
36002;DHT22;22070;50.922;5.430;2023-04-25T05:24:35;8.40;99.90
36002;DHT22;22070;50.922;5.430;2023-04-25T05:27:01;8.40;99.90
36002;DHT22;22070;50.922;5.430;2023-04-25T05:29:27;8.40;99.90
36002;DHT22;22070;50.922;5.430;2023-04-25T05:31:53;8.30;99.90
36002;DHT22;22070;50.922;5.430;2023-04-25T05:34:18;8.30;99.90
36002;DHT22;22070;50.922;5.430;2023-04-25T05:36:44;8.40;99.90
36002;DHT22;22070;50.922;5.430;2023-04-25T05:39:14;8.50;99.90
36002;DHT22;22070;50.922;5.430;2023-04-25T05:41:40;8.50;99.90
36002;DHT22;22070;50.922;5.430;2023-04-25T05:44:06;8.50;99.90
36002;DHT22;22070;50.922;5.430;2023-04-25T05:46:31;8.50;99.90
36002;DHT22;22070;50.922;5.430;2023-04-25T05:48:57;8.50;99.90
36002;DHT22;22070;50.922;5.430;2023-04-25T05:51:23;8.60;99.90
36002;DHT22;22070;50.922;5.430;2023-04-25T05:53:48;8.70;99.90
36002;DHT22;22070;50.922;5.430;2023-04-25T05:56:14;8.70;99.90
36002;DHT22;22070;50.922;5.430;2023-04-25T05:58:40;8.60;99.90
36002;DHT22;22070;50.922;5.430;2023-04-25T06:01:05;8.70;99.90
36002;DHT22;22070;50.922;5.430;2023-04-25T06:03:31;8.80;99.90
36002;DHT22;22070;50.922;5.430;2023-04-25T06:05:56;8.80;99.90
36002;DHT22;22070;50.922;5.430;2023-04-25T06:08:22;8.80;99.90
36002;DHT22;22070;50.922;5.430;2023-04-25T06:10:48;8.80;99.90
36002;DHT22;22070;50.922;5.430;2023-04-25T06:13:14;8.70;99.90
36002;DHT22;22070;50.922;5.430;2023-04-25T06:15:40;8.60;99.90
36002;DHT22;22070;50.922;5.430;2023-04-25T06:18:06;8.70;99.90
36002;DHT22;22070;50.922;5.430;2023-04-25T06:20:32;8.90;99.90
36002;DHT22;22070;50.922;5.430;2023-04-25T06:22:58;8.90;99.90
36002;DHT22;22070;50.922;5.430;2023-04-25T06:25:23;8.90;99.90
36002;DHT22;22070;50.922;5.430;2023-04-25T06:27:49;8.90;99.90
36002;DHT22;22070;50.922;5.430;2023-04-25T06:30:15;8.80;99.90
36002;DHT22;22070;50.922;5.430;2023-04-25T06:32:41;8.80;99.90
36002;DHT22;22070;50.922;5.430;2023-04-25T06:35:07;8.80;99.90
36002;DHT22;22070;50.922;5.430;2023-04-25T06:37:33;8.90;99.90
36002;DHT22;22070;50.922;5.430;2023-04-25T06:39:58;9.00;99.90
36002;DHT22;22070;50.922;5.430;2023-04-25T06:42:24;9.00;99.90
36002;DHT22;22070;50.922;5.430;2023-04-25T06:44:50;8.90;99.90
36002;DHT22;22070;50.922;5.430;2023-04-25T06:47:16;8.90;99.90
36002;DHT22;22070;50.922;5.430;2023-04-25T06:49:41;8.90;99.90
36002;DHT22;22070;50.922;5.430;2023-04-25T06:52:07;8.90;99.90
36002;DHT22;22070;50.922;5.430;2023-04-25T06:54:33;9.00;99.90
36002;DHT22;22070;50.922;5.430;2023-04-25T06:56:59;9.10;99.90
36002;DHT22;22070;50.922;5.430;2023-04-25T06:59:26;9.20;99.90
36002;DHT22;22070;50.922;5.430;2023-04-25T07:01:51;9.20;99.90
36002;DHT22;22070;50.922;5.430;2023-04-25T07:04:17;9.20;99.90
36002;DHT22;22070;50.922;5.430;2023-04-25T07:06:43;9.10;99.90
36002;DHT22;22070;50.922;5.430;2023-04-25T07:09:09;9.20;99.90
36002;DHT22;22070;50.922;5.430;2023-04-25T07:11:38;9.30;99.90
36002;DHT22;22070;50.922;5.430;2023-04-25T07:14:03;9.40;99.90
36002;DHT22;22070;50.922;5.430;2023-04-25T07:16:29;9.40;99.90
36002;DHT22;22070;50.922;5.430;2023-04-25T07:18:55;9.50;99.90
36002;DHT22;22070;50.922;5.430;2023-04-25T07:21:21;9.50;99.90
36002;DHT22;22070;50.922;5.430;2023-04-25T07:23:46;9.60;99.90
36002;DHT22;22070;50.922;5.430;2023-04-25T07:26:12;9.60;99.90
36002;DHT22;22070;50.922;5.430;2023-04-25T07:28:38;9.40;99.90
36002;DHT22;22070;50.922;5.430;2023-04-25T07:31:04;9.50;99.90
36002;DHT22;22070;50.922;5.430;2023-04-25T07:33:30;9.50;99.90
36002;DHT22;22070;50.922;5.430;2023-04-25T07:35:56;9.60;99.90
36002;DHT22;22070;50.922;5.430;2023-04-25T07:38:22;9.60;99.90
36002;DHT22;22070;50.922;5.430;2023-04-25T07:40:48;9.70;99.90
36002;DHT22;22070;50.922;5.430;2023-04-25T07:43:14;9.70;99.90
36002;DHT22;22070;50.922;5.430;2023-04-25T07:45:42;9.80;99.90
36002;DHT22;22070;50.922;5.430;2023-04-25T07:48:08;10.00;99.90
36002;DHT22;22070;50.922;5.430;2023-04-25T07:50:34;10.00;99.90
36002;DHT22;22070;50.922;5.430;2023-04-25T07:53:00;10.00;99.90
36002;DHT22;22070;50.922;5.430;2023-04-25T07:55:25;10.00;99.90
36002;DHT22;22070;50.922;5.430;2023-04-25T07:57:51;10.10;99.90
36002;DHT22;22070;50.922;5.430;2023-04-25T08:00:17;10.20;99.90
36002;DHT22;22070;50.922;5.430;2023-04-25T08:02:43;10.30;99.90
36002;DHT22;22070;50.922;5.430;2023-04-25T08:05:08;10.40;99.90
36002;DHT22;22070;50.922;5.430;2023-04-25T08:07:37;10.40;99.90
36002;DHT22;22070;50.922;5.430;2023-04-25T08:10:05;10.40;99.90
36002;DHT22;22070;50.922;5.430;2023-04-25T08:12:31;10.30;99.90
36002;DHT22;22070;50.922;5.430;2023-04-25T08:14:56;10.20;99.90
36002;DHT22;22070;50.922;5.430;2023-04-25T08:17:22;10.10;99.90
36002;DHT22;22070;50.922;5.430;2023-04-25T08:35:08;9.60;99.90
36002;DHT22;22070;50.922;5.430;2023-04-25T08:37:34;9.70;99.90
36002;DHT22;22070;50.922;5.430;2023-04-25T08:40:00;9.80;99.90
36002;DHT22;22070;50.922;5.430;2023-04-25T08:42:27;9.90;99.90
36002;DHT22;22070;50.922;5.430;2023-04-25T08:44:54;10.00;99.90
36002;DHT22;22070;50.922;5.430;2023-04-25T08:47:22;10.20;99.90
36002;DHT22;22070;50.922;5.430;2023-04-25T08:49:48;10.30;99.90
36002;DHT22;22070;50.922;5.430;2023-04-25T08:52:23;10.30;99.90
36002;DHT22;22070;50.922;5.430;2023-04-25T08:54:51;10.20;99.90
36002;DHT22;22070;50.922;5.430;2023-04-25T08:57:18;10.20;99.90
36002;DHT22;22070;50.922;5.430;2023-04-25T08:59:45;10.20;99.90
36002;DHT22;22070;50.922;5.430;2023-04-25T09:02:12;10.30;99.90
36002;DHT22;22070;50.922;5.430;2023-04-25T09:04:43;10.30;99.90
36002;DHT22;22070;50.922;5.430;2023-04-25T09:07:09;10.30;99.90
36002;DHT22;22070;50.922;5.430;2023-04-25T09:09:35;10.40;99.90
36002;DHT22;22070;50.922;5.430;2023-04-25T09:12:01;10.40;99.90
36002;DHT22;22070;50.922;5.430;2023-04-25T09:14:27;10.30;99.90
36002;DHT22;22070;50.922;5.430;2023-04-25T09:19:23;10.70;99.90
36002;DHT22;22070;50.922;5.430;2023-04-25T09:21:50;10.70;99.90
36002;DHT22;22070;50.922;5.430;2023-04-25T09:27:19;10.70;99.90
36002;DHT22;22070;50.922;5.430;2023-04-25T09:29:45;10.70;99.90
36002;DHT22;22070;50.922;5.430;2023-04-25T09:32:19;10.80;99.90
36002;DHT22;22070;50.922;5.430;2023-04-25T09:34:52;10.70;99.90
36002;DHT22;22070;50.922;5.430;2023-04-25T09:37:29;10.70;99.90
36002;DHT22;22070;50.922;5.430;2023-04-25T09:39:56;10.60;99.90
36002;DHT22;22070;50.922;5.430;2023-04-25T09:42:23;10.50;99.90
36002;DHT22;22070;50.922;5.430;2023-04-25T09:44:52;10.60;99.90
36002;DHT22;22070;50.922;5.430;2023-04-25T09:47:18;10.70;99.90
36002;DHT22;22070;50.922;5.430;2023-04-25T09:49:46;10.80;99.90
36002;DHT22;22070;50.922;5.430;2023-04-25T09:54:43;10.90;99.90
36002;DHT22;22070;50.922;5.430;2023-04-25T09:57:12;10.80;99.90
36002;DHT22;22070;50.922;5.430;2023-04-25T09:59:39;10.90;99.90
36002;DHT22;22070;50.922;5.430;2023-04-25T10:02:08;11.00;99.90
36002;DHT22;22070;50.922;5.430;2023-04-25T10:04:35;10.90;99.90
36002;DHT22;22070;50.922;5.430;2023-04-25T10:07:05;11.20;99.90
36002;DHT22;22070;50.922;5.430;2023-04-25T10:09:32;11.20;99.90
36002;DHT22;22070;50.922;5.430;2023-04-25T10:12:01;11.30;99.90
36002;DHT22;22070;50.922;5.430;2023-04-25T10:14:30;11.30;99.90
36002;DHT22;22070;50.922;5.430;2023-04-25T10:16:57;11.40;99.90
36002;DHT22;22070;50.922;5.430;2023-04-25T10:19:24;11.40;99.90
36002;DHT22;22070;50.922;5.430;2023-04-25T10:24:27;11.50;99.90
36002;DHT22;22070;50.922;5.430;2023-04-25T10:26:53;11.60;99.90
36002;DHT22;22070;50.922;5.430;2023-04-25T10:29:24;11.60;99.90
36002;DHT22;22070;50.922;5.430;2023-04-25T10:31:50;11.60;99.90
36002;DHT22;22070;50.922;5.430;2023-04-25T10:34:16;11.60;99.90
36002;DHT22;22070;50.922;5.430;2023-04-25T10:36:42;11.60;99.90
36002;DHT22;22070;50.922;5.430;2023-04-25T10:39:08;11.50;99.90
36002;DHT22;22070;50.922;5.430;2023-04-25T10:42:01;11.40;99.90
36002;DHT22;22070;50.922;5.430;2023-04-25T10:44:31;11.30;99.90
36002;DHT22;22070;50.922;5.430;2023-04-25T10:46:58;11.20;99.90
36002;DHT22;22070;50.922;5.430;2023-04-25T10:49:38;11.00;99.90
36002;DHT22;22070;50.922;5.430;2023-04-25T10:52:25;11.10;99.90
36002;DHT22;22070;50.922;5.430;2023-04-25T10:54:56;11.20;99.90
36002;DHT22;22070;50.922;5.430;2023-04-25T10:57:42;10.90;99.90
36002;DHT22;22070;50.922;5.430;2023-04-25T11:00:18;11.00;99.90
36002;DHT22;22070;50.922;5.430;2023-04-25T11:02:53;10.80;99.90
36002;DHT22;22070;50.922;5.430;2023-04-25T11:07:53;11.00;99.90
36002;DHT22;22070;50.922;5.430;2023-04-25T11:10:28;11.10;99.90
36002;DHT22;22070;50.922;5.430;2023-04-25T11:12:54;11.20;99.90
36002;DHT22;22070;50.922;5.430;2023-04-25T11:15:19;11.10;99.90
36002;DHT22;22070;50.922;5.430;2023-04-25T11:17:45;11.00;99.90
36002;DHT22;22070;50.922;5.430;2023-04-25T11:20:12;11.20;99.90
36002;DHT22;22070;50.922;5.430;2023-04-25T11:22:39;11.20;99.90
36002;DHT22;22070;50.922;5.430;2023-04-25T11:25:09;11.20;99.90
36002;DHT22;22070;50.922;5.430;2023-04-25T11:27:38;11.30;99.90
36002;DHT22;22070;50.922;5.430;2023-04-25T11:30:15;11.30;99.90
36002;DHT22;22070;50.922;5.430;2023-04-25T11:32:41;11.50;99.90
36002;DHT22;22070;50.922;5.430;2023-04-25T11:35:09;11.60;99.90
36002;DHT22;22070;50.922;5.430;2023-04-25T11:37:35;11.60;99.90
36002;DHT22;22070;50.922;5.430;2023-04-25T11:40:01;11.60;99.90
36002;DHT22;22070;50.922;5.430;2023-04-25T11:42:27;11.40;99.90
36002;DHT22;22070;50.922;5.430;2023-04-25T11:44:53;11.40;99.90
36002;DHT22;22070;50.922;5.430;2023-04-25T11:47:18;11.50;99.90
36002;DHT22;22070;50.922;5.430;2023-04-25T11:49:44;11.50;99.90
36002;DHT22;22070;50.922;5.430;2023-04-25T11:52:09;11.50;99.90
36002;DHT22;22070;50.922;5.430;2023-04-25T11:54:36;11.60;99.90
36002;DHT22;22070;50.922;5.430;2023-04-25T11:57:02;11.70;99.90
36002;DHT22;22070;50.922;5.430;2023-04-25T11:59:28;11.60;99.90
36002;DHT22;22070;50.922;5.430;2023-04-25T12:01:54;11.70;99.90
36002;DHT22;22070;50.922;5.430;2023-04-25T12:04:22;11.70;99.90
36002;DHT22;22070;50.922;5.430;2023-04-25T12:06:50;11.80;99.90
36002;DHT22;22070;50.922;5.430;2023-04-25T12:09:20;12.00;99.90
36002;DHT22;22070;50.922;5.430;2023-04-25T12:11:56;12.00;99.90
36002;DHT22;22070;50.922;5.430;2023-04-25T12:14:27;12.10;99.90
36002;DHT22;22070;50.922;5.430;2023-04-25T12:16:56;12.00;99.90
36002;DHT22;22070;50.922;5.430;2023-04-25T12:19:23;12.30;99.90
36002;DHT22;22070;50.922;5.430;2023-04-25T12:21:50;12.40;99.90
36002;DHT22;22070;50.922;5.430;2023-04-25T12:24:23;12.40;99.90
36002;DHT22;22070;50.922;5.430;2023-04-25T12:27:02;12.30;99.90
36002;DHT22;22070;50.922;5.430;2023-04-25T12:29:30;12.20;99.90
36002;DHT22;22070;50.922;5.430;2023-04-25T12:31:57;12.40;99.90
36002;DHT22;22070;50.922;5.430;2023-04-25T12:34:23;12.30;99.90
36002;DHT22;22070;50.922;5.430;2023-04-25T12:36:50;11.70;99.90
36002;DHT22;22070;50.922;5.430;2023-04-25T12:39:21;11.10;99.90
36002;DHT22;22070;50.922;5.430;2023-04-25T12:41:48;10.70;99.90
36002;DHT22;22070;50.922;5.430;2023-04-25T12:44:14;10.50;99.90
36002;DHT22;22070;50.922;5.430;2023-04-25T12:46:41;10.30;99.90
36002;DHT22;22070;50.922;5.430;2023-04-25T12:49:07;10.20;99.90
36002;DHT22;22070;50.922;5.430;2023-04-25T12:51:34;10.10;99.90
36002;DHT22;22070;50.922;5.430;2023-04-25T12:54:00;10.10;99.90
36002;DHT22;22070;50.922;5.430;2023-04-25T12:56:27;10.20;99.90
36002;DHT22;22070;50.922;5.430;2023-04-25T12:58:53;10.30;99.90
36002;DHT22;22070;50.922;5.430;2023-04-25T13:01:20;10.30;99.90
36002;DHT22;22070;50.922;5.430;2023-04-25T13:03:46;10.40;99.90
36002;DHT22;22070;50.922;5.430;2023-04-25T13:06:13;10.50;99.90
36002;DHT22;22070;50.922;5.430;2023-04-25T13:08:39;10.60;99.90
36002;DHT22;22070;50.922;5.430;2023-04-25T13:11:05;10.80;99.90
36002;DHT22;22070;50.922;5.430;2023-04-25T13:13:31;10.90;99.90
36002;DHT22;22070;50.922;5.430;2023-04-25T13:15:58;11.00;99.90
36002;DHT22;22070;50.922;5.430;2023-04-25T13:18:24;11.10;99.90
36002;DHT22;22070;50.922;5.430;2023-04-25T13:20:56;11.40;99.90
36002;DHT22;22070;50.922;5.430;2023-04-25T13:23:22;11.70;99.90
36002;DHT22;22070;50.922;5.430;2023-04-25T13:25:48;11.70;99.90
36002;DHT22;22070;50.922;5.430;2023-04-25T13:28:14;11.80;99.90
36002;DHT22;22070;50.922;5.430;2023-04-25T13:30:40;11.90;99.90
36002;DHT22;22070;50.922;5.430;2023-04-25T13:33:06;12.00;99.90
36002;DHT22;22070;50.922;5.430;2023-04-25T13:35:33;12.30;99.90
36002;DHT22;22070;50.922;5.430;2023-04-25T13:37:59;12.40;99.90
36002;DHT22;22070;50.922;5.430;2023-04-25T13:40:25;12.50;99.90
36002;DHT22;22070;50.922;5.430;2023-04-25T13:42:50;12.50;99.90
36002;DHT22;22070;50.922;5.430;2023-04-25T13:45:16;12.40;99.90
36002;DHT22;22070;50.922;5.430;2023-04-25T13:47:42;12.40;99.90
36002;DHT22;22070;50.922;5.430;2023-04-25T13:50:08;12.40;99.90
36002;DHT22;22070;50.922;5.430;2023-04-25T13:52:34;12.30;99.90
36002;DHT22;22070;50.922;5.430;2023-04-25T13:55:00;12.10;99.90
36002;DHT22;22070;50.922;5.430;2023-04-25T13:57:28;12.10;99.90
36002;DHT22;22070;50.922;5.430;2023-04-25T13:59:55;12.10;99.90
36002;DHT22;22070;50.922;5.430;2023-04-25T14:02:21;12.00;99.90
36002;DHT22;22070;50.922;5.430;2023-04-25T14:04:48;12.10;99.90
36002;DHT22;22070;50.922;5.430;2023-04-25T14:07:14;12.30;99.90
36002;DHT22;22070;50.922;5.430;2023-04-25T14:09:41;12.20;99.90
36002;DHT22;22070;50.922;5.430;2023-04-25T14:12:07;12.10;99.90
36002;DHT22;22070;50.922;5.430;2023-04-25T14:14:33;12.20;99.90
36002;DHT22;22070;50.922;5.430;2023-04-25T14:16:59;12.40;99.90
36002;DHT22;22070;50.922;5.430;2023-04-25T14:19:24;12.40;99.90
36002;DHT22;22070;50.922;5.430;2023-04-25T14:21:50;12.50;99.90
36002;DHT22;22070;50.922;5.430;2023-04-25T14:24:16;12.40;99.90
36002;DHT22;22070;50.922;5.430;2023-04-25T14:26:42;12.50;99.90
36002;DHT22;22070;50.922;5.430;2023-04-25T14:29:08;12.30;99.90
36002;DHT22;22070;50.922;5.430;2023-04-25T14:31:34;12.20;99.90
36002;DHT22;22070;50.922;5.430;2023-04-25T14:34:01;12.20;99.90
36002;DHT22;22070;50.922;5.430;2023-04-25T14:36:30;12.10;99.90
36002;DHT22;22070;50.922;5.430;2023-04-25T14:38:56;12.30;99.90
36002;DHT22;22070;50.922;5.430;2023-04-25T14:41:22;12.30;99.90
36002;DHT22;22070;50.922;5.430;2023-04-25T14:43:48;12.30;99.90
36002;DHT22;22070;50.922;5.430;2023-04-25T14:46:14;12.30;99.90
36002;DHT22;22070;50.922;5.430;2023-04-25T14:48:40;12.30;99.90
36002;DHT22;22070;50.922;5.430;2023-04-25T14:51:05;12.20;99.90
36002;DHT22;22070;50.922;5.430;2023-04-25T14:53:31;12.20;99.90
36002;DHT22;22070;50.922;5.430;2023-04-25T14:55:57;12.10;99.90
36002;DHT22;22070;50.922;5.430;2023-04-25T14:58:23;12.10;99.90
36002;DHT22;22070;50.922;5.430;2023-04-25T15:00:49;12.20;99.90
36002;DHT22;22070;50.922;5.430;2023-04-25T15:03:14;12.30;99.90
36002;DHT22;22070;50.922;5.430;2023-04-25T15:05:42;12.40;99.90
36002;DHT22;22070;50.922;5.430;2023-04-25T15:08:08;12.50;99.90
36002;DHT22;22070;50.922;5.430;2023-04-25T15:10:34;12.50;99.90
36002;DHT22;22070;50.922;5.430;2023-04-25T15:13:00;12.70;99.90
36002;DHT22;22070;50.922;5.430;2023-04-25T15:15:26;12.80;99.90
36002;DHT22;22070;50.922;5.430;2023-04-25T15:17:52;12.80;99.90
36002;DHT22;22070;50.922;5.430;2023-04-25T15:20:20;12.60;99.90
36002;DHT22;22070;50.922;5.430;2023-04-25T15:22:46;12.40;99.90
36002;DHT22;22070;50.922;5.430;2023-04-25T15:25:14;12.50;99.90
36002;DHT22;22070;50.922;5.430;2023-04-25T15:27:41;12.50;99.90
36002;DHT22;22070;50.922;5.430;2023-04-25T15:30:10;12.60;99.90
36002;DHT22;22070;50.922;5.430;2023-04-25T15:32:45;12.90;99.90
36002;DHT22;22070;50.922;5.430;2023-04-25T15:35:12;13.30;99.90
36002;DHT22;22070;50.922;5.430;2023-04-25T15:37:38;13.60;99.90
36002;DHT22;22070;50.922;5.430;2023-04-25T15:40:13;13.90;99.90
36002;DHT22;22070;50.922;5.430;2023-04-25T15:42:41;14.30;99.90
36002;DHT22;22070;50.922;5.430;2023-04-25T15:45:09;14.50;99.90
36002;DHT22;22070;50.922;5.430;2023-04-25T15:47:35;14.40;99.90
36002;DHT22;22070;50.922;5.430;2023-04-25T15:50:04;14.40;99.90
36002;DHT22;22070;50.922;5.430;2023-04-25T15:52:31;14.30;99.90
36002;DHT22;22070;50.922;5.430;2023-04-25T15:54:57;13.90;99.90
36002;DHT22;22070;50.922;5.430;2023-04-25T15:57:22;14.00;99.90
36002;DHT22;22070;50.922;5.430;2023-04-25T15:59:48;14.00;99.90
36002;DHT22;22070;50.922;5.430;2023-04-25T16:02:15;14.00;99.90